Flight OLY787

  • Submitted By: Stavros Sarikas
  • Departure Airport: Skiathos Island National Airport (LGSK)
  • Arrival Airport: Eleftherios Venizelos International Airport (LGAV)
  • Aircraft: A320-200 (SX-OAT)
  • Flight Time: 00.31
  • Date Submitted: 08/02/2018
  • Route: DILOP B1 ABLON
  • Status: Accepted
Flight Details
Gross Revenue:
(116 load / € 150.00 per unit
€ 17, 400.00
Fuel Cost:
(1212 fuel used @ 0.19 / unit)
€ 230.28

Additional Log Information:

View Log

Aircraft Used in flight is Airbus A320 British Airways G-EUUU
13:12 Boarding
13:12 Navigation Lights ON at 60 Feet
13:12 Beacon Lights ON at 60 Feet
13:12 Brakes are On
13:13 Engine 2 Started
13:14 Engine 1 Started
13:15 Brakes are Released
13:15 Pushing back
13:16 Flaps 3 Selected at 60ft and 0kts
13:16 Taxi Lights ON at 60 Feet
13:17 Landing Lights ON at 60 AGL
13:17 Strobe Lights ON at 60 Feet
13:20 You Took off @ 133 Knots and Flaps at Position 3 With a heading of 18 Degrees
Departure Weather LGSK 081050Z 00000KT CAVOK 17/05 Q1013
Departure Coordinates 39.1822059132267/ 23.505995500912
Takeoff Weight=57682KG Fuel Weight=2837KG
13:20 Paused
13:20 Landing Gear Up @ 132 Knots and 140 Feet
13:20 Taxi Lights OFF at 170 Feet
13:20 You exceeded maximum bank angle
13:20 Unpaused
13:21 Flaps 2 Selected at 1670ft and 162kts
13:21 Flaps 0 Selected at 2080ft and 181kts
13:23 Below 10000 feet you are not allowed to go over 250 knots
13:23 Above FL100 you need to switch of the landing lights
13:24 Landing Lights OFF at 10350 AGL
13:26 TOC Reached
13:36 Landing Lights ON at 9720 AGL
13:40 Flaps 1 Selected at 3010ft and 224kts
13:41 Flaps 3 Selected at 1150ft and 208kts
13:41 Landing Gear Down @ 203 Knots and 1040 Feet
13:41 Flaps 4 Selected at 810ft and 192kts
13:41 Taxi Lights ON at 780 Feet
13:41 Flaps 5 Selected at 550ft and 185kts
13:41 You Landed @ 162 Knots with -250 Vertical Speed With a heading of 216 and with 1.7264 G Force
Arrival Weather: LGAV 081120Z 26008KT 220V290 CAVOK 18/02 Q1014 NOSIG
Arrival Coordinates 37.9464668281292/ 23.9650282980318
Landing Weight=56651KG Fuel Weight=1807KG
13:42 Taxiing to gate
13:42 Paused
13:42 Landing Lights OFF at 320 AGL
13:42 Strobe Lights OFF at 320 Feet
13:42 Flaps 0 Selected at 320ft and 31kts
13:43 Unpaused
13:43 Brakes are On
13:43 Engine 1 Stopped
13:43 Engine 2 Stopped
Pirep logged with OA Virtual Tracking 1.0.2.6

Route Map